createdAt,value
2019-02-25T00:00:14.273Z,102056.00
2019-02-25T00:02:42.906Z,102049.30
2019-02-25T00:05:11.534Z,102049.27
2019-02-25T00:07:40.251Z,102044.52
2019-02-25T00:10:10.278Z,102041.19
2019-02-25T00:12:38.906Z,102041.69
2019-02-25T00:15:09.824Z,102039.54
2019-02-25T00:17:40.430Z,102041.69
2019-02-25T00:20:12.601Z,102039.48
2019-02-25T00:22:41.256Z,102035.64
2019-02-25T00:25:12.247Z,102038.21
2019-02-25T00:27:40.867Z,102030.18
2019-02-25T00:30:15.168Z,102032.80
2019-02-25T00:32:43.797Z,102031.08
2019-02-25T00:35:12.422Z,102027.69
2019-02-25T00:37:41.103Z,102025.62
2019-02-25T00:40:12.329Z,102024.37
2019-02-25T00:42:40.915Z,102020.11
2019-02-25T00:45:11.577Z,102016.63
2019-02-25T00:47:40.208Z,102024.61
2019-02-25T00:50:17.527Z,102026.76
2019-02-25T00:52:46.259Z,102028.53
2019-02-25T00:55:15.396Z,102027.21
2019-02-25T00:57:44.177Z,102029.78
2019-02-25T01:00:18.159Z,102025.12
2019-02-25T01:02:46.792Z,102010.82
2019-02-25T01:05:16.234Z,102015.09
2019-02-25T01:07:44.869Z,102013.89
2019-02-25T01:10:15.213Z,102004.16
2019-02-25T01:12:45.447Z,102003.77
2019-02-25T01:15:14.379Z,102005.08
2019-02-25T01:17:43.025Z,102003.91
2019-02-25T01:20:13.911Z,102008.55
2019-02-25T01:22:42.470Z,101995.84
2019-02-25T01:25:12.812Z,101992.84
2019-02-25T01:27:41.480Z,101998.01
2019-02-25T01:30:15.369Z,101992.55
2019-02-25T01:32:44.016Z,101990.45
2019-02-25T01:35:13.853Z,101982.86
2019-02-25T01:37:42.590Z,101987.97
2019-02-25T01:40:12.717Z,101977.83
2019-02-25T01:42:41.387Z,101977.85
2019-02-25T01:45:20.672Z,101968.13
2019-02-25T01:50:26.685Z,101961.82
2019-02-25T01:52:55.309Z,101956.35
2019-02-25T01:55:23.830Z,101959.30
2019-02-25T01:57:52.390Z,101957.64
2019-02-25T02:00:20.979Z,101962.34
2019-02-25T02:02:49.600Z,101959.78
2019-02-25T02:05:18.150Z,101960.20
2019-02-25T02:07:46.742Z,101966.56
2019-02-25T02:10:16.450Z,101963.62
2019-02-25T02:12:45.078Z,101956.01
2019-02-25T02:15:19.644Z,101951.72
2019-02-25T02:17:48.265Z,101953.83
2019-02-25T02:20:17.923Z,101963.52
2019-02-25T02:22:46.597Z,101955.47
2019-02-25T02:25:15.528Z,101945.28
2019-02-25T02:27:44.153Z,101947.85
2019-02-25T02:30:18.600Z,101940.62
2019-02-25T02:32:47.228Z,101934.66
2019-02-25T02:35:15.855Z,101932.55
2019-02-25T02:37:44.850Z,101932.98
2019-02-25T02:40:14.582Z,101935.94
2019-02-25T02:42:49.124Z,101935.48
2019-02-25T02:45:20.662Z,101939.73
2019-02-25T02:48:01.515Z,101939.77
2019-02-25T02:50:30.067Z,101932.98
2019-02-25T02:52:58.682Z,101938.87
2019-02-25T02:55:27.348Z,101938.48
2019-02-25T02:57:55.979Z,101939.33
2019-02-25T03:00:24.599Z,101943.57
2019-02-25T03:02:53.261Z,101947.79
2019-02-25T03:05:21.808Z,101947.79
2019-02-25T03:07:50.452Z,101952.88
2019-02-25T03:10:19.900Z,101956.28
2019-02-25T03:12:48.451Z,101954.56
2019-02-25T03:15:21.491Z,101958.41
2019-02-25T03:17:50.143Z,101947.39
2019-02-25T03:20:18.776Z,101947.39
2019-02-25T03:22:47.405Z,101948.23
2019-02-25T03:25:17.600Z,101946.54
2019-02-25T03:27:46.164Z,101948.23
2019-02-25T03:30:17.220Z,101949.53
2019-02-25T03:32:46.106Z,101952.95
2019-02-25T03:35:14.835Z,101955.50
2019-02-25T03:37:44.266Z,101956.31
2019-02-25T03:40:21.200Z,101947.01
2019-02-25T03:42:50.085Z,101945.73
2019-02-25T03:45:19.718Z,101941.44
2019-02-25T03:47:48.329Z,101941.41
2019-02-25T03:50:16.971Z,101949.47
2019-02-25T03:52:45.597Z,101942.30
2019-02-25T03:55:21.262Z,101945.24
2019-02-25T03:57:50.491Z,101952.91
2019-02-25T04:00:25.898Z,101954.18
2019-02-25T04:02:54.517Z,101956.35
2019-02-25T04:05:23.158Z,101956.75
2019-02-25T04:07:51.821Z,101957.20
2019-02-25T04:10:20.386Z,101955.47
2019-02-25T04:12:49.011Z,101950.38
2019-02-25T04:15:20.823Z,101953.77
2019-02-25T04:17:49.430Z,101957.54
2019-02-25T04:20:18.370Z,101959.66
2019-02-25T04:22:47.044Z,101962.14
2019-02-25T04:25:15.679Z,101967.21
2019-02-25T04:27:44.344Z,101971.51
2019-02-25T04:30:17.192Z,101969.02
2019-02-25T04:32:45.866Z,101958.36
2019-02-25T04:35:14.930Z,101968.13
2019-02-25T04:37:43.523Z,101964.27
2019-02-25T04:40:14.103Z,101965.98
2019-02-25T04:42:42.730Z,101960.93
2019-02-25T04:45:14.035Z,101961.78
2019-02-25T04:47:42.595Z,101955.39
2019-02-25T04:50:12.663Z,101955.39
2019-02-25T04:52:41.145Z,101953.70
2019-02-25T04:55:11.566Z,101958.41
2019-02-25T04:57:40.181Z,101952.88
2019-02-25T05:00:14.671Z,101947.33
2019-02-25T05:02:43.332Z,101940.09
2019-02-25T05:05:11.980Z,101939.22
2019-02-25T05:07:40.569Z,101948.50
2019-02-25T05:10:14.506Z,101950.66
2019-02-25T05:12:44.763Z,101951.91
2019-02-25T05:15:15.092Z,101954.84
2019-02-25T05:17:43.748Z,101962.86
2019-02-25T05:20:12.571Z,101959.89
2019-02-25T05:22:41.193Z,101965.78
2019-02-25T05:25:11.620Z,101969.63
2019-02-25T05:27:40.255Z,101973.89
2019-02-25T05:30:11.516Z,101971.74
2019-02-25T05:32:40.151Z,101965.83
2019-02-25T05:35:10.681Z,101968.84
2019-02-25T05:37:39.376Z,101973.09
2019-02-25T05:40:15.910Z,101970.98
2019-02-25T05:42:44.644Z,101974.81
2019-02-25T05:45:14.179Z,101976.58
2019-02-25T05:47:42.732Z,101980.47
2019-02-25T05:50:19.241Z,101980.08
2019-02-25T05:52:47.866Z,101978.45
2019-02-25T05:55:17.869Z,101978.89
2019-02-25T05:57:46.526Z,101981.03
2019-02-25T06:00:19.714Z,101983.58
2019-02-25T06:02:48.349Z,101988.74
2019-02-25T06:05:17.014Z,101986.23
2019-02-25T06:07:45.654Z,101988.84
2019-02-25T06:10:14.764Z,101992.37
2019-02-25T06:12:43.439Z,101988.70
2019-02-25T06:15:17.722Z,101990.14
2019-02-25T06:17:46.413Z,101993.69
2019-02-25T06:20:17.135Z,101999.36
2019-02-25T06:22:46.045Z,101996.03
2019-02-25T06:25:15.821Z,101994.03
2019-02-25T06:27:44.587Z,102001.67
2019-02-25T06:30:18.900Z,102001.67
2019-02-25T06:32:47.545Z,101994.97
2019-02-25T06:35:16.199Z,101995.94
2019-02-25T06:37:44.929Z,101996.41
2019-02-25T06:40:17.627Z,101999.88
2019-02-25T06:42:46.277Z,101993.61
2019-02-25T06:45:19.731Z,101993.67
2019-02-25T06:47:48.365Z,102001.05
2019-02-25T06:50:18.533Z,102001.05
2019-02-25T06:52:47.090Z,102001.93
2019-02-25T06:55:17.449Z,102008.77
2019-02-25T06:57:45.978Z,102013.09
2019-02-25T07:00:19.693Z,101999.84
2019-02-25T07:02:48.312Z,102012.23
2019-02-25T07:05:18.616Z,102013.12
2019-02-25T07:07:57.641Z,102005.79
2019-02-25T07:10:43.980Z,102005.79
2019-02-25T07:13:19.905Z,102009.64
2019-02-25T07:15:50.141Z,102009.70
2019-02-25T07:18:22.930Z,102014.86
2019-02-25T07:21:09.293Z,102007.23
2019-02-25T07:23:42.186Z,102007.23
2019-02-25T07:26:28.837Z,102021.83
2019-02-25T07:29:15.038Z,102010.78
2019-02-25T07:31:48.317Z,102009.51
2019-02-25T07:34:21.475Z,102018.03
2019-02-25T07:36:54.786Z,102018.03
2019-02-25T07:39:40.850Z,102022.31
2019-02-25T07:42:11.220Z,102030.45
2019-02-25T07:44:47.318Z,102021.88
2019-02-25T07:47:17.591Z,102020.60
2019-02-25T07:50:03.870Z,102027.44
2019-02-25T07:52:34.119Z,102027.42
2019-02-25T07:55:10.284Z,102029.14
2019-02-25T07:57:43.623Z,102025.24
2019-02-25T08:00:14.207Z,102025.95
2019-02-25T08:02:50.454Z,102027.19
2019-02-25T08:05:29.608Z,102025.91
2019-02-25T08:08:02.658Z,102032.38
2019-02-25T08:10:35.710Z,102032.79
2019-02-25T08:13:11.684Z,102031.60
2019-02-25T08:15:41.875Z,102040.22
2019-02-25T08:18:12.142Z,102046.22
2019-02-25T08:20:50.514Z,102039.81
2019-02-25T08:23:20.725Z,102047.94
2019-02-25T08:25:59.965Z,102039.81
2019-02-25T08:28:45.298Z,102039.73
2019-02-25T08:31:27.717Z,102040.91
2019-02-25T08:33:59.487Z,102043.05
2019-02-25T08:37:02.878Z,102039.66
2019-02-25T08:39:39.506Z,102037.03
2019-02-25T08:42:09.763Z,102048.84
2019-02-25T08:44:48.694Z,102056.27
2019-02-25T08:47:18.975Z,102059.64
2019-02-25T08:49:50.310Z,102056.61
2019-02-25T08:52:19.033Z,102057.55
2019-02-25T08:54:47.695Z,102049.80
2019-02-25T08:57:16.416Z,102051.52
2019-02-25T08:59:45.083Z,102047.42
2019-02-25T09:02:13.724Z,102051.45
2019-02-25T09:04:42.353Z,102042.39
2019-02-25T09:07:11.091Z,102045.33
2019-02-25T09:09:39.769Z,102039.84
2019-02-25T09:12:08.404Z,102039.84
2019-02-25T09:14:36.984Z,102051.02
2019-02-25T09:17:05.739Z,102051.42
2019-02-25T09:19:36.045Z,102047.69
2019-02-25T09:22:04.947Z,102038.81
2019-02-25T09:24:33.625Z,102040.88
2019-02-25T09:27:02.361Z,102048.98
2019-02-25T09:29:33.166Z,102047.85
2019-02-25T09:32:01.834Z,102048.83
2019-02-25T09:34:31.792Z,102046.68
2019-02-25T09:37:00.354Z,102047.11
2019-02-25T09:39:29.046Z,102040.19
2019-02-25T09:41:59.156Z,102042.86
2019-02-25T09:44:27.712Z,102035.65
2019-02-25T09:46:56.574Z,102034.33
2019-02-25T09:49:25.145Z,102035.89
2019-02-25T09:51:53.733Z,102043.34
2019-02-25T09:54:22.320Z,102037.47
2019-02-25T09:56:52.343Z,102026.16
2019-02-25T09:59:20.997Z,102027.44
2019-02-25T10:01:49.652Z,102022.31
2019-02-25T10:04:18.209Z,102026.31
2019-02-25T10:06:46.862Z,102024.17
2019-02-25T10:09:15.528Z,102019.48
2019-02-25T10:11:44.168Z,102022.34
2019-02-25T10:14:14.546Z,102022.25
2019-02-25T10:16:43.220Z,102008.86
2019-02-25T10:19:13.485Z,102023.43
2019-02-25T10:21:42.046Z,102023.13
2019-02-25T10:24:11.246Z,102022.06
2019-02-25T10:26:39.817Z,102029.96
2019-02-25T10:29:08.425Z,102022.57
2019-02-25T10:31:38.086Z,102024.95
2019-02-25T10:34:07.725Z,102024.38
2019-02-25T10:36:36.382Z,102016.40
2019-02-25T10:39:09.074Z,102023.73
2019-02-25T10:41:39.843Z,102015.77
2019-02-25T10:44:08.647Z,102004.70
2019-02-25T10:46:39.017Z,102016.40
2019-02-25T10:49:11.605Z,102010.66
2019-02-25T10:51:39.302Z,102012.64
2019-02-25T10:54:08.648Z,102007.52
2019-02-25T10:56:40.192Z,101999.14
2019-02-25T10:59:09.601Z,101995.84
2019-02-25T11:01:39.293Z,101995.66
2019-02-25T11:04:08.615Z,101988.73
2019-02-25T11:06:37.746Z,101989.06
2019-02-25T11:09:11.059Z,101986.21
2019-02-25T11:11:41.907Z,101976.39
2019-02-25T11:14:10.582Z,101973.11
2019-02-25T11:16:39.331Z,101982.02
2019-02-25T11:19:08.090Z,101988.25
2019-02-25T11:21:37.687Z,101985.09
2019-02-25T11:24:07.487Z,101976.75
2019-02-25T11:26:36.107Z,101964.22
2019-02-25T11:29:05.616Z,101967.21
2019-02-25T11:31:35.306Z,101976.33
2019-02-25T11:34:05.695Z,101984.89
2019-02-25T11:36:34.357Z,101978.53
2019-02-25T11:39:04.616Z,101969.30
2019-02-25T11:41:34.982Z,101976.36
2019-02-25T11:44:05.929Z,101970.85
2019-02-25T11:46:34.578Z,101988.79
2019-02-25T11:49:03.291Z,101976.94
2019-02-25T11:51:31.914Z,101976.89
2019-02-25T11:54:02.680Z,101967.73
2019-02-25T11:56:31.374Z,101971.50
2019-02-25T11:58:59.931Z,101968.73
2019-02-25T12:01:28.424Z,101956.27
2019-02-25T12:03:57.051Z,101950.70
2019-02-25T12:06:25.674Z,101951.33
2019-02-25T12:08:54.420Z,101957.35
2019-02-25T12:11:23.130Z,101957.81
2019-02-25T12:13:52.807Z,101947.12
2019-02-25T12:16:21.804Z,101938.98
2019-02-25T12:18:50.511Z,101930.38
2019-02-25T12:21:19.089Z,101928.97
2019-02-25T12:23:47.655Z,101929.48
2019-02-25T12:26:16.265Z,101926.72
2019-02-25T12:28:44.986Z,101923.94
2019-02-25T12:31:13.914Z,101909.53
2019-02-25T12:33:42.627Z,101904.86
2019-02-25T12:36:11.267Z,101909.02
2019-02-25T12:38:40.168Z,101917.11
2019-02-25T12:41:09.127Z,101913.55
2019-02-25T12:43:37.782Z,101908.20
2019-02-25T12:46:06.355Z,101904.95
2019-02-25T12:48:34.970Z,101903.41
2019-02-25T12:51:05.099Z,101910.11
2019-02-25T12:53:33.745Z,101902.61
2019-02-25T12:56:02.411Z,101898.78
2019-02-25T12:58:31.002Z,101886.30
2019-02-25T13:00:59.670Z,101885.38
2019-02-25T13:03:28.305Z,101889.66
2019-02-25T13:05:56.896Z,101884.91
2019-02-25T13:08:25.599Z,101882.66
2019-02-25T13:10:54.172Z,101882.95
2019-02-25T13:13:22.736Z,101878.42
2019-02-25T13:15:51.280Z,101878.36
2019-02-25T13:18:20.055Z,101878.63
2019-02-25T13:20:48.626Z,101875.29
2019-02-25T13:23:17.295Z,101864.91
2019-02-25T13:25:45.860Z,101858.70
2019-02-25T13:28:14.597Z,101851.28
2019-02-25T13:30:43.249Z,101857.32
2019-02-25T13:33:11.817Z,101859.26
2019-02-25T13:35:40.382Z,101857.20
2019-02-25T13:38:09.034Z,101840.70
2019-02-25T13:40:40.102Z,101845.78
2019-02-25T13:43:08.751Z,101841.36
2019-02-25T13:45:37.443Z,101839.41
2019-02-25T13:48:06.102Z,101843.30
2019-02-25T13:50:35.013Z,101840.77
2019-02-25T13:53:03.786Z,101834.14
2019-02-25T13:55:32.495Z,101834.38
2019-02-25T13:58:01.413Z,101833.22
2019-02-25T14:00:31.000Z,101829.33
2019-02-25T14:02:59.675Z,101835.03
2019-02-25T14:05:29.751Z,101825.00
2019-02-25T14:07:58.373Z,101821.41
2019-02-25T14:10:26.947Z,101831.76
2019-02-25T14:12:55.699Z,101832.33
2019-02-25T14:15:25.310Z,101823.04
2019-02-25T14:17:53.958Z,101817.81
2019-02-25T14:20:24.083Z,101818.88
2019-02-25T14:22:52.781Z,101813.86
2019-02-25T14:25:27.312Z,101809.02
2019-02-25T14:27:56.263Z,101812.25
2019-02-25T14:30:26.231Z,101810.91
2019-02-25T14:32:55.958Z,101808.69
2019-02-25T14:35:29.490Z,101806.78
2019-02-25T14:38:05.086Z,101807.53
2019-02-25T14:40:32.514Z,101811.52
2019-02-25T14:43:05.716Z,101808.86
2019-02-25T14:45:34.433Z,101803.08
2019-02-25T14:48:05.564Z,101803.21
2019-02-25T14:50:33.966Z,101796.50
2019-02-25T14:53:04.012Z,101811.47
2019-02-25T14:55:33.395Z,101805.23
2019-02-25T14:58:04.471Z,101798.16
2019-02-25T15:00:35.054Z,101804.91
2019-02-25T15:03:04.225Z,101798.56
2019-02-25T15:05:32.865Z,101798.97
2019-02-25T15:08:01.806Z,101794.64
2019-02-25T15:10:31.566Z,101791.95
2019-02-25T15:13:01.997Z,101793.91
2019-02-25T15:15:31.248Z,101788.05
2019-02-25T15:17:59.827Z,101784.55
2019-02-25T15:20:28.972Z,101791.55
2019-02-25T15:22:57.734Z,101783.13
2019-02-25T15:25:29.109Z,101779.04
2019-02-25T15:27:58.048Z,101778.34
2019-02-25T15:30:32.888Z,101778.22
2019-02-25T15:33:01.525Z,101781.26
2019-02-25T15:35:32.410Z,101779.44
2019-02-25T15:38:00.819Z,101779.80
2019-02-25T15:40:29.650Z,101782.63
2019-02-25T15:43:06.315Z,101788.78
2019-02-25T15:45:38.359Z,101787.07
2019-02-25T15:48:09.313Z,101779.98
2019-02-25T15:50:38.213Z,101791.59
2019-02-25T15:53:09.455Z,101792.61
2019-02-25T15:55:38.798Z,101790.17
2019-02-25T15:58:08.730Z,101783.41
2019-02-25T16:00:38.649Z,101781.38
2019-02-25T16:03:10.665Z,101786.91
2019-02-25T16:05:39.042Z,101794.28
2019-02-25T16:08:09.550Z,101788.41
2019-02-25T16:10:38.194Z,101787.64
2019-02-25T16:13:10.979Z,101789.34
2019-02-25T16:15:37.532Z,101786.37
2019-02-25T16:18:06.278Z,101780.44
2019-02-25T16:20:35.270Z,101779.39
2019-02-25T16:23:07.237Z,101778.50
2019-02-25T16:25:35.640Z,101778.07
2019-02-25T16:28:05.992Z,101769.82
2019-02-25T16:30:34.767Z,101762.08
2019-02-25T16:33:07.270Z,101768.08
2019-02-25T16:35:36.870Z,101768.55
2019-02-25T16:38:07.336Z,101773.48
2019-02-25T16:40:38.360Z,101773.48
2019-02-25T16:43:12.117Z,101774.44
2019-02-25T16:45:40.144Z,101768.73
2019-02-25T16:48:09.142Z,101777.95
2019-02-25T16:50:39.808Z,101766.48
2019-02-25T16:53:10.894Z,101776.80
2019-02-25T16:55:42.756Z,101772.16
2019-02-25T16:58:13.313Z,101771.38
2019-02-25T17:00:42.808Z,101774.80
2019-02-25T17:03:13.682Z,101782.54
2019-02-25T17:05:45.643Z,101776.61
2019-02-25T17:08:14.819Z,101780.47
2019-02-25T17:10:43.404Z,101769.84
2019-02-25T17:13:14.325Z,101763.47
2019-02-25T17:15:46.048Z,101763.47
2019-02-25T17:18:15.133Z,101759.20
2019-02-25T17:20:45.055Z,101759.20
2019-02-25T17:23:13.913Z,101749.87
2019-02-25T17:25:43.617Z,101749.87
2019-02-25T17:28:15.348Z,101755.86
2019-02-25T17:30:45.020Z,101749.90
2019-02-25T17:33:14.832Z,101739.69
2019-02-25T17:35:45.350Z,101757.61
2019-02-25T17:38:14.185Z,101751.23
2019-02-25T17:40:42.828Z,101744.84
2019-02-25T17:43:13.352Z,101753.81
2019-02-25T17:45:41.852Z,101757.23
2019-02-25T17:48:13.506Z,101755.10
2019-02-25T17:50:41.698Z,101746.14
2019-02-25T17:53:10.415Z,101746.56
2019-02-25T17:55:39.328Z,101754.70
2019-02-25T17:58:08.896Z,101754.70
2019-02-25T18:00:42.559Z,101756.84
2019-02-25T18:03:11.390Z,101748.34
2019-02-25T18:05:42.924Z,101756.86
2019-02-25T18:08:14.894Z,101748.35
2019-02-25T18:10:43.660Z,101741.97
2019-02-25T18:13:13.260Z,101737.26
2019-02-25T18:15:42.173Z,101726.18
2019-02-25T18:18:14.091Z,101713.83
2019-02-25T18:20:41.768Z,101715.95
2019-02-25T18:23:10.624Z,101713.83
2019-02-25T18:25:39.709Z,101720.23
2019-02-25T18:28:10.843Z,101719.37
2019-02-25T18:30:39.802Z,101719.37
2019-02-25T18:33:09.488Z,101724.49
2019-02-25T18:35:41.619Z,101724.49
2019-02-25T18:38:10.339Z,101732.61
2019-02-25T18:40:41.357Z,101736.45
2019-02-25T18:43:11.810Z,101736.45
2019-02-25T18:45:42.633Z,101728.77
2019-02-25T18:48:11.049Z,101729.61
2019-02-25T18:50:39.774Z,101729.61
2019-02-25T18:53:10.224Z,101724.50
2019-02-25T18:55:41.317Z,101725.37
2019-02-25T18:58:12.594Z,101719.38
2019-02-25T19:00:45.357Z,101713.42
2019-02-25T19:03:14.323Z,101719.82
2019-02-25T19:05:42.999Z,101714.70
2019-02-25T19:08:20.301Z,101716.82
2019-02-25T19:10:52.712Z,101716.82
2019-02-25T19:13:23.334Z,101715.14
2019-02-25T19:15:53.088Z,101712.14
2019-02-25T19:18:22.493Z,101707.02
2019-02-25T19:20:53.418Z,101710.86
2019-02-25T19:23:25.736Z,101706.59
2019-02-25T19:25:54.536Z,101709.14
2019-02-25T19:28:24.422Z,101704.02
2019-02-25T19:30:53.858Z,101709.13
2019-02-25T19:33:24.319Z,101698.90
2019-02-25T19:35:54.386Z,101708.28
2019-02-25T19:38:25.118Z,101710.41
2019-02-25T19:40:55.950Z,101703.59
2019-02-25T19:43:26.012Z,101702.33
2019-02-25T19:45:54.657Z,101689.11
2019-02-25T19:48:28.337Z,101689.11
2019-02-25T19:50:56.149Z,101688.67
2019-02-25T19:53:25.565Z,101696.33
2019-02-25T19:55:55.819Z,101695.47
2019-02-25T19:58:26.789Z,101695.47
2019-02-25T20:01:00.295Z,101689.92
2019-02-25T20:03:25.885Z,101689.92
2019-02-25T20:05:56.389Z,101693.75
2019-02-25T20:08:25.443Z,101707.36
2019-02-25T20:10:55.604Z,101713.34
2019-02-25T20:13:24.319Z,101711.20
2019-02-25T20:15:53.343Z,101718.02
2019-02-25T20:18:23.224Z,101717.57
2019-02-25T20:20:52.046Z,101717.57
2019-02-25T20:23:23.991Z,101719.29
2019-02-25T20:25:53.490Z,101723.12
2019-02-25T20:28:26.681Z,101719.30
2019-02-25T20:30:55.684Z,101723.97
2019-02-25T20:33:31.837Z,101729.08
2019-02-25T20:35:58.940Z,101729.08
2019-02-25T20:38:29.612Z,101732.91
2019-02-25T20:41:02.563Z,101732.50
2019-02-25T20:43:33.096Z,101726.96
2019-02-25T20:46:05.804Z,101735.07
2019-02-25T20:48:35.344Z,101728.68
2019-02-25T20:51:06.729Z,101730.79
2019-02-25T20:53:34.662Z,101730.79
2019-02-25T20:56:03.359Z,101723.95
2019-02-25T20:58:36.077Z,101717.18
2019-02-25T21:01:07.502Z,101717.18
2019-02-25T21:03:41.520Z,101712.47
2019-02-25T21:06:12.684Z,101713.75
2019-02-25T21:08:42.346Z,101715.91
2019-02-25T21:11:15.647Z,101716.30
2019-02-25T21:13:43.949Z,101716.30
2019-02-25T21:16:16.121Z,101716.73
2019-02-25T21:18:46.639Z,101718.85
2019-02-25T21:21:17.873Z,101710.78
2019-02-25T21:23:50.007Z,101720.55
2019-02-25T21:26:18.586Z,101713.31
2019-02-25T21:28:48.920Z,101703.92
2019-02-25T21:31:21.378Z,101703.92
2019-02-25T21:33:54.241Z,101697.53
2019-02-25T21:36:24.487Z,101689.42
2019-02-25T21:38:56.055Z,101689.42
2019-02-25T21:41:24.897Z,101683.48
2019-02-25T21:43:59.103Z,101680.48
2019-02-25T21:46:28.909Z,101690.30
2019-02-25T21:49:01.525Z,101680.06
2019-02-25T21:51:32.666Z,101680.06
2019-02-25T21:54:04.435Z,101672.41
2019-02-25T21:56:33.121Z,101674.08
2019-02-25T21:59:01.740Z,101674.08
2019-02-25T22:01:32.325Z,101669.39
2019-02-25T22:04:03.270Z,101669.39
2019-02-25T22:06:33.256Z,101658.34
2019-02-25T22:09:03.010Z,101658.34
2019-02-25T22:11:32.606Z,101657.88
2019-02-25T22:14:01.240Z,101669.38
2019-02-25T22:16:32.125Z,101666.38
2019-02-25T22:19:04.309Z,101666.38
2019-02-25T22:21:34.588Z,101663.41
2019-02-25T22:24:05.832Z,101660.85
2019-02-25T22:26:35.984Z,101660.85
2019-02-25T22:29:08.377Z,101656.58
2019-02-25T22:31:39.418Z,101655.30
2019-02-25T22:34:08.857Z,101652.28
2019-02-25T22:36:41.633Z,101661.22
2019-02-25T22:39:08.526Z,101653.58
2019-02-25T22:41:37.095Z,101660.81
2019-02-25T22:44:08.474Z,101658.66
2019-02-25T22:46:41.343Z,101656.52
2019-02-25T22:49:09.902Z,101647.58
2019-02-25T22:51:38.596Z,101640.76
2019-02-25T22:54:10.384Z,101650.13
2019-02-25T22:56:42.560Z,101640.75
2019-02-25T22:59:11.256Z,101636.91
2019-02-25T23:01:40.985Z,101636.91
2019-02-25T23:04:13.050Z,101642.02
2019-02-25T23:06:42.438Z,101636.91
2019-02-25T23:09:14.369Z,101640.75
2019-02-25T23:11:44.283Z,101630.94
2019-02-25T23:14:15.829Z,101627.55
2019-02-25T23:16:45.858Z,101620.72
2019-02-25T23:19:15.800Z,101614.33
2019-02-25T23:21:45.244Z,101614.33
2019-02-25T23:24:13.862Z,101613.88
2019-02-25T23:26:42.361Z,101613.88
2019-02-25T23:29:10.865Z,101612.19
2019-02-25T23:31:39.550Z,101606.22
2019-02-25T23:34:10.382Z,101611.33
2019-02-25T23:36:42.999Z,101602.83
2019-02-25T23:39:09.869Z,101593.48
2019-02-25T23:41:38.968Z,101596.91
2019-02-25T23:44:11.133Z,101599.47
2019-02-25T23:46:40.796Z,101596.05
2019-02-25T23:49:10.892Z,101592.23
2019-02-25T23:51:41.521Z,101592.23
2019-02-25T23:54:12.154Z,101583.31
2019-02-25T23:56:45.465Z,101583.31
2019-02-25T23:59:14.564Z,101582.05
